sensor_id;sensor_type;location;lat;lon;timestamp;P1;durP1;ratioP1;P2;durP2;ratioP2
7887;SDS011;3989;48.810;9.208;2023-04-25T00:01:44;1.17;;;1.07;;
7887;SDS011;3989;48.810;9.208;2023-04-25T00:04:11;1.20;;;1.20;;
7887;SDS011;3989;48.810;9.208;2023-04-25T00:06:39;1.63;;;1.27;;
7887;SDS011;3989;48.810;9.208;2023-04-25T00:09:06;1.13;;;1.13;;
7887;SDS011;3989;48.810;9.208;2023-04-25T00:11:35;1.50;;;1.40;;
7887;SDS011;3989;48.810;9.208;2023-04-25T00:14:02;1.10;;;1.10;;
7887;SDS011;3989;48.810;9.208;2023-04-25T00:16:28;1.10;;;0.90;;
7887;SDS011;3989;48.810;9.208;2023-04-25T00:18:58;1.30;;;1.30;;
7887;SDS011;3989;48.810;9.208;2023-04-25T00:21:25;1.07;;;1.07;;
7887;SDS011;3989;48.810;9.208;2023-04-25T00:23:53;1.83;;;1.40;;
7887;SDS011;3989;48.810;9.208;2023-04-25T00:26:20;1.33;;;1.20;;
7887;SDS011;3989;48.810;9.208;2023-04-25T00:28:47;1.10;;;1.10;;
7887;SDS011;3989;48.810;9.208;2023-04-25T00:31:13;0.83;;;0.83;;
7887;SDS011;3989;48.810;9.208;2023-04-25T00:33:40;1.50;;;1.03;;
7887;SDS011;3989;48.810;9.208;2023-04-25T00:36:07;1.37;;;1.27;;
7887;SDS011;3989;48.810;9.208;2023-04-25T00:38:34;1.23;;;1.23;;
7887;SDS011;3989;48.810;9.208;2023-04-25T00:41:03;1.30;;;1.20;;
7887;SDS011;3989;48.810;9.208;2023-04-25T00:43:31;1.13;;;1.13;;
7887;SDS011;3989;48.810;9.208;2023-04-25T00:45:59;1.70;;;1.60;;
7887;SDS011;3989;48.810;9.208;2023-04-25T00:48:26;1.27;;;1.20;;
7887;SDS011;3989;48.810;9.208;2023-04-25T00:50:53;3.30;;;1.43;;
7887;SDS011;3989;48.810;9.208;2023-04-25T00:53:21;1.37;;;1.37;;
7887;SDS011;3989;48.810;9.208;2023-04-25T00:55:49;1.20;;;1.20;;
7887;SDS011;3989;48.810;9.208;2023-04-25T00:58:18;2.13;;;1.30;;
7887;SDS011;3989;48.810;9.208;2023-04-25T01:00:45;1.17;;;1.17;;
7887;SDS011;3989;48.810;9.208;2023-04-25T01:03:12;1.57;;;1.47;;
7887;SDS011;3989;48.810;9.208;2023-04-25T01:05:41;1.90;;;1.50;;
7887;SDS011;3989;48.810;9.208;2023-04-25T01:08:08;1.77;;;1.67;;
7887;SDS011;3989;48.810;9.208;2023-04-25T01:10:35;1.40;;;1.33;;
7887;SDS011;3989;48.810;9.208;2023-04-25T01:13:03;2.33;;;1.70;;
7887;SDS011;3989;48.810;9.208;2023-04-25T01:15:31;1.37;;;1.27;;
7887;SDS011;3989;48.810;9.208;2023-04-25T01:17:58;1.50;;;1.40;;
7887;SDS011;3989;48.810;9.208;2023-04-25T01:20:25;1.67;;;1.57;;
7887;SDS011;3989;48.810;9.208;2023-04-25T01:22:54;1.27;;;1.27;;
7887;SDS011;3989;48.810;9.208;2023-04-25T01:25:22;1.50;;;1.40;;
7887;SDS011;3989;48.810;9.208;2023-04-25T01:27:50;2.10;;;1.70;;
7887;SDS011;3989;48.810;9.208;2023-04-25T01:30:16;2.60;;;1.53;;
7887;SDS011;3989;48.810;9.208;2023-04-25T01:32:43;2.83;;;1.70;;
7887;SDS011;3989;48.810;9.208;2023-04-25T01:35:13;1.87;;;1.70;;
7887;SDS011;3989;48.810;9.208;2023-04-25T01:37:40;1.57;;;1.47;;
7887;SDS011;3989;48.810;9.208;2023-04-25T01:40:09;2.00;;;1.90;;
7887;SDS011;3989;48.810;9.208;2023-04-25T01:42:38;1.50;;;1.40;;
7887;SDS011;3989;48.810;9.208;2023-04-25T01:45:06;1.67;;;1.57;;
7887;SDS011;3989;48.810;9.208;2023-04-25T01:47:34;1.60;;;1.50;;
7887;SDS011;3989;48.810;9.208;2023-04-25T01:50:01;1.60;;;1.47;;
7887;SDS011;3989;48.810;9.208;2023-04-25T01:52:28;2.07;;;1.90;;
7887;SDS011;3989;48.810;9.208;2023-04-25T01:54:54;1.50;;;1.43;;
7887;SDS011;3989;48.810;9.208;2023-04-25T01:57:24;2.10;;;1.93;;
7887;SDS011;3989;48.810;9.208;2023-04-25T01:59:50;1.40;;;1.40;;
7887;SDS011;3989;48.810;9.208;2023-04-25T02:02:18;2.13;;;1.67;;
7887;SDS011;3989;48.810;9.208;2023-04-25T02:04:45;1.60;;;1.50;;
7887;SDS011;3989;48.810;9.208;2023-04-25T02:07:12;1.93;;;1.73;;
7887;SDS011;3989;48.810;9.208;2023-04-25T02:09:38;2.37;;;1.60;;
7887;SDS011;3989;48.810;9.208;2023-04-25T02:12:05;1.63;;;1.57;;
7887;SDS011;3989;48.810;9.208;2023-04-25T02:14:34;1.60;;;1.50;;
7887;SDS011;3989;48.810;9.208;2023-04-25T02:17:01;1.80;;;1.67;;
7887;SDS011;3989;48.810;9.208;2023-04-25T02:19:28;1.50;;;1.47;;
7887;SDS011;3989;48.810;9.208;2023-04-25T02:21:55;2.40;;;1.53;;
7887;SDS011;3989;48.810;9.208;2023-04-25T02:24:22;1.83;;;1.60;;
7887;SDS011;3989;48.810;9.208;2023-04-25T02:26:49;1.83;;;1.73;;
7887;SDS011;3989;48.810;9.208;2023-04-25T02:29:15;2.13;;;1.97;;
7887;SDS011;3989;48.810;9.208;2023-04-25T02:31:43;1.40;;;1.40;;
7887;SDS011;3989;48.810;9.208;2023-04-25T02:34:10;1.70;;;1.60;;
7887;SDS011;3989;48.810;9.208;2023-04-25T02:36:36;1.67;;;1.57;;
7887;SDS011;3989;48.810;9.208;2023-04-25T02:39:03;1.70;;;1.60;;
7887;SDS011;3989;48.810;9.208;2023-04-25T02:41:30;1.67;;;1.57;;
7887;SDS011;3989;48.810;9.208;2023-04-25T02:43:56;1.53;;;1.43;;
7887;SDS011;3989;48.810;9.208;2023-04-25T02:46:23;2.50;;;1.60;;
7887;SDS011;3989;48.810;9.208;2023-04-25T02:48:51;2.07;;;1.80;;
7887;SDS011;3989;48.810;9.208;2023-04-25T02:51:17;1.80;;;1.70;;
7887;SDS011;3989;48.810;9.208;2023-04-25T02:53:44;1.60;;;1.50;;
7887;SDS011;3989;48.810;9.208;2023-04-25T02:56:10;1.60;;;1.50;;
7887;SDS011;3989;48.810;9.208;2023-04-25T02:58:37;1.47;;;1.47;;
7887;SDS011;3989;48.810;9.208;2023-04-25T03:01:04;1.63;;;1.53;;
7887;SDS011;3989;48.810;9.208;2023-04-25T03:05:59;2.90;;;1.90;;
7887;SDS011;3989;48.810;9.208;2023-04-25T03:08:26;1.93;;;1.83;;
7887;SDS011;3989;48.810;9.208;2023-04-25T03:10:57;4.70;;;1.73;;
7887;SDS011;3989;48.810;9.208;2023-04-25T03:13:23;3.37;;;1.70;;
7887;SDS011;3989;48.810;9.208;2023-04-25T03:15:50;1.97;;;1.60;;
7887;SDS011;3989;48.810;9.208;2023-04-25T03:18:17;1.87;;;1.60;;
7887;SDS011;3989;48.810;9.208;2023-04-25T03:20:43;1.70;;;1.60;;
7887;SDS011;3989;48.810;9.208;2023-04-25T03:23:11;1.60;;;1.60;;
7887;SDS011;3989;48.810;9.208;2023-04-25T03:25:38;2.00;;;1.90;;
7887;SDS011;3989;48.810;9.208;2023-04-25T03:28:04;3.43;;;2.40;;
7887;SDS011;3989;48.810;9.208;2023-04-25T03:30:31;3.30;;;1.80;;
7887;SDS011;3989;48.810;9.208;2023-04-25T03:32:57;2.27;;;2.13;;
7887;SDS011;3989;48.810;9.208;2023-04-25T03:35:24;1.70;;;1.60;;
7887;SDS011;3989;48.810;9.208;2023-04-25T03:37:51;2.03;;;1.90;;
7887;SDS011;3989;48.810;9.208;2023-04-25T03:40:19;2.00;;;1.90;;
7887;SDS011;3989;48.810;9.208;2023-04-25T03:42:45;2.37;;;1.93;;
7887;SDS011;3989;48.810;9.208;2023-04-25T03:45:12;1.80;;;1.70;;
7887;SDS011;3989;48.810;9.208;2023-04-25T03:47:38;1.67;;;1.60;;
7887;SDS011;3989;48.810;9.208;2023-04-25T03:50:05;2.00;;;1.70;;
7887;SDS011;3989;48.810;9.208;2023-04-25T03:52:32;2.80;;;1.60;;
7887;SDS011;3989;48.810;9.208;2023-04-25T03:54:59;1.83;;;1.70;;
7887;SDS011;3989;48.810;9.208;2023-04-25T03:57:27;3.77;;;1.70;;
7887;SDS011;3989;48.810;9.208;2023-04-25T03:59:53;2.27;;;2.07;;
7887;SDS011;3989;48.810;9.208;2023-04-25T04:02:20;2.70;;;2.27;;
7887;SDS011;3989;48.810;9.208;2023-04-25T04:04:46;2.03;;;1.87;;
7887;SDS011;3989;48.810;9.208;2023-04-25T04:07:13;2.50;;;2.30;;
7887;SDS011;3989;48.810;9.208;2023-04-25T04:09:39;2.00;;;1.90;;
7887;SDS011;3989;48.810;9.208;2023-04-25T04:12:06;1.80;;;1.70;;
7887;SDS011;3989;48.810;9.208;2023-04-25T04:14:34;2.30;;;2.00;;
7887;SDS011;3989;48.810;9.208;2023-04-25T04:17:00;1.93;;;1.80;;
7887;SDS011;3989;48.810;9.208;2023-04-25T04:19:27;3.73;;;2.30;;
7887;SDS011;3989;48.810;9.208;2023-04-25T04:21:53;2.47;;;2.27;;
7887;SDS011;3989;48.810;9.208;2023-04-25T04:24:20;2.47;;;1.83;;
7887;SDS011;3989;48.810;9.208;2023-04-25T04:26:46;2.60;;;1.60;;
7887;SDS011;3989;48.810;9.208;2023-04-25T04:29:13;2.40;;;2.00;;
7887;SDS011;3989;48.810;9.208;2023-04-25T04:31:47;2.13;;;2.00;;
7887;SDS011;3989;48.810;9.208;2023-04-25T04:34:14;4.53;;;2.17;;
7887;SDS011;3989;48.810;9.208;2023-04-25T04:36:41;3.10;;;2.27;;
7887;SDS011;3989;48.810;9.208;2023-04-25T04:39:08;2.93;;;2.27;;
7887;SDS011;3989;48.810;9.208;2023-04-25T04:41:36;2.23;;;2.03;;
7887;SDS011;3989;48.810;9.208;2023-04-25T04:44:02;2.37;;;2.27;;
7887;SDS011;3989;48.810;9.208;2023-04-25T04:46:29;5.83;;;2.20;;
7887;SDS011;3989;48.810;9.208;2023-04-25T04:48:57;2.37;;;2.03;;
7887;SDS011;3989;48.810;9.208;2023-04-25T04:51:24;1.70;;;1.60;;
7887;SDS011;3989;48.810;9.208;2023-04-25T04:53:51;2.27;;;2.07;;
7887;SDS011;3989;48.810;9.208;2023-04-25T04:56:17;2.23;;;2.00;;
7887;SDS011;3989;48.810;9.208;2023-04-25T04:58:45;5.20;;;2.10;;
7887;SDS011;3989;48.810;9.208;2023-04-25T05:01:14;4.63;;;2.10;;
7887;SDS011;3989;48.810;9.208;2023-04-25T05:03:41;2.23;;;2.10;;
7887;SDS011;3989;48.810;9.208;2023-04-25T05:06:09;2.83;;;2.63;;
7887;SDS011;3989;48.810;9.208;2023-04-25T05:08:36;3.43;;;2.40;;
7887;SDS011;3989;48.810;9.208;2023-04-25T05:11:03;4.20;;;2.47;;
7887;SDS011;3989;48.810;9.208;2023-04-25T05:13:29;2.20;;;2.10;;
7887;SDS011;3989;48.810;9.208;2023-04-25T05:15:56;3.13;;;2.93;;
7887;SDS011;3989;48.810;9.208;2023-04-25T05:18:23;2.87;;;2.67;;
7887;SDS011;3989;48.810;9.208;2023-04-25T05:20:50;2.37;;;2.27;;
7887;SDS011;3989;48.810;9.208;2023-04-25T05:23:18;2.77;;;2.57;;
7887;SDS011;3989;48.810;9.208;2023-04-25T05:25:44;2.83;;;2.43;;
7887;SDS011;3989;48.810;9.208;2023-04-25T05:28:12;9.07;;;2.93;;
7887;SDS011;3989;48.810;9.208;2023-04-25T05:30:39;2.93;;;2.80;;
7887;SDS011;3989;48.810;9.208;2023-04-25T05:33:06;2.90;;;2.70;;
7887;SDS011;3989;48.810;9.208;2023-04-25T05:35:33;3.03;;;2.83;;
7887;SDS011;3989;48.810;9.208;2023-04-25T05:37:59;5.93;;;2.73;;
7887;SDS011;3989;48.810;9.208;2023-04-25T05:40:27;3.33;;;2.50;;
7887;SDS011;3989;48.810;9.208;2023-04-25T05:42:54;3.37;;;3.17;;
7887;SDS011;3989;48.810;9.208;2023-04-25T05:45:21;2.60;;;2.50;;
7887;SDS011;3989;48.810;9.208;2023-04-25T05:47:48;2.87;;;2.67;;
7887;SDS011;3989;48.810;9.208;2023-04-25T05:50:14;2.63;;;2.43;;
7887;SDS011;3989;48.810;9.208;2023-04-25T05:52:41;4.33;;;2.80;;
7887;SDS011;3989;48.810;9.208;2023-04-25T05:55:08;2.60;;;2.50;;
7887;SDS011;3989;48.810;9.208;2023-04-25T05:57:36;2.97;;;2.70;;
7887;SDS011;3989;48.810;9.208;2023-04-25T06:00:06;2.67;;;2.57;;
7887;SDS011;3989;48.810;9.208;2023-04-25T06:02:34;2.53;;;2.40;;
7887;SDS011;3989;48.810;9.208;2023-04-25T06:05:00;3.27;;;2.97;;
7887;SDS011;3989;48.810;9.208;2023-04-25T06:07:28;3.00;;;2.77;;
7887;SDS011;3989;48.810;9.208;2023-04-25T06:09:55;3.03;;;2.83;;
7887;SDS011;3989;48.810;9.208;2023-04-25T06:12:22;3.47;;;2.87;;
7887;SDS011;3989;48.810;9.208;2023-04-25T06:14:49;3.37;;;2.80;;
7887;SDS011;3989;48.810;9.208;2023-04-25T06:17:16;2.93;;;2.73;;
7887;SDS011;3989;48.810;9.208;2023-04-25T06:19:43;3.13;;;2.93;;
7887;SDS011;3989;48.810;9.208;2023-04-25T06:22:10;2.83;;;2.67;;
7887;SDS011;3989;48.810;9.208;2023-04-25T06:24:36;2.80;;;2.70;;
7887;SDS011;3989;48.810;9.208;2023-04-25T06:27:03;2.70;;;2.50;;
7887;SDS011;3989;48.810;9.208;2023-04-25T06:29:30;3.23;;;2.80;;
7887;SDS011;3989;48.810;9.208;2023-04-25T06:31:58;2.63;;;2.43;;
7887;SDS011;3989;48.810;9.208;2023-04-25T06:34:24;2.53;;;2.33;;
7887;SDS011;3989;48.810;9.208;2023-04-25T06:36:51;2.57;;;2.47;;
7887;SDS011;3989;48.810;9.208;2023-04-25T06:39:17;2.37;;;2.17;;
7887;SDS011;3989;48.810;9.208;2023-04-25T06:41:45;3.33;;;2.57;;
7887;SDS011;3989;48.810;9.208;2023-04-25T06:44:11;2.30;;;2.20;;
7887;SDS011;3989;48.810;9.208;2023-04-25T06:46:38;2.93;;;2.40;;
7887;SDS011;3989;48.810;9.208;2023-04-25T06:49:06;2.50;;;2.40;;
7887;SDS011;3989;48.810;9.208;2023-04-25T06:51:32;3.60;;;2.60;;
7887;SDS011;3989;48.810;9.208;2023-04-25T06:53:59;2.90;;;2.70;;
7887;SDS011;3989;48.810;9.208;2023-04-25T06:56:25;2.70;;;2.50;;
7887;SDS011;3989;48.810;9.208;2023-04-25T06:58:53;3.03;;;2.83;;
7887;SDS011;3989;48.810;9.208;2023-04-25T07:01:19;2.60;;;2.50;;
7887;SDS011;3989;48.810;9.208;2023-04-25T07:03:46;2.50;;;2.40;;
7887;SDS011;3989;48.810;9.208;2023-04-25T07:06:14;2.37;;;2.23;;
7887;SDS011;3989;48.810;9.208;2023-04-25T07:08:40;2.43;;;2.33;;
7887;SDS011;3989;48.810;9.208;2023-04-25T07:11:07;2.30;;;2.20;;
7887;SDS011;3989;48.810;9.208;2023-04-25T07:13:34;2.80;;;2.60;;
7887;SDS011;3989;48.810;9.208;2023-04-25T07:16:02;2.93;;;2.73;;
7887;SDS011;3989;48.810;9.208;2023-04-25T07:18:29;2.80;;;2.60;;
7887;SDS011;3989;48.810;9.208;2023-04-25T07:20:56;2.93;;;2.73;;
7887;SDS011;3989;48.810;9.208;2023-04-25T07:23:24;2.80;;;2.70;;
7887;SDS011;3989;48.810;9.208;2023-04-25T07:25:51;2.90;;;2.77;;
7887;SDS011;3989;48.810;9.208;2023-04-25T07:28:17;3.70;;;3.50;;
7887;SDS011;3989;48.810;9.208;2023-04-25T07:30:44;3.30;;;3.10;;
7887;SDS011;3989;48.810;9.208;2023-04-25T07:33:10;4.20;;;3.33;;
7887;SDS011;3989;48.810;9.208;2023-04-25T07:35:37;3.17;;;2.97;;
7887;SDS011;3989;48.810;9.208;2023-04-25T07:38:03;3.40;;;3.20;;
7887;SDS011;3989;48.810;9.208;2023-04-25T07:40:33;3.40;;;3.20;;
7887;SDS011;3989;48.810;9.208;2023-04-25T07:43:00;3.77;;;3.40;;
7887;SDS011;3989;48.810;9.208;2023-04-25T07:45:27;3.47;;;3.27;;
7887;SDS011;3989;48.810;9.208;2023-04-25T07:47:53;3.40;;;3.20;;
7887;SDS011;3989;48.810;9.208;2023-04-25T07:50:20;3.70;;;3.50;;
7887;SDS011;3989;48.810;9.208;2023-04-25T07:52:47;4.23;;;3.67;;
7887;SDS011;3989;48.810;9.208;2023-04-25T07:55:13;3.90;;;3.60;;
7887;SDS011;3989;48.810;9.208;2023-04-25T07:57:41;4.17;;;3.87;;
7887;SDS011;3989;48.810;9.208;2023-04-25T08:00:08;3.80;;;3.50;;
7887;SDS011;3989;48.810;9.208;2023-04-25T08:02:36;4.23;;;3.93;;
7887;SDS011;3989;48.810;9.208;2023-04-25T08:05:03;4.70;;;4.20;;
7887;SDS011;3989;48.810;9.208;2023-04-25T08:07:33;4.40;;;4.00;;
7887;SDS011;3989;48.810;9.208;2023-04-25T08:09:59;4.57;;;4.17;;
7887;SDS011;3989;48.810;9.208;2023-04-25T08:12:26;4.27;;;3.90;;
7887;SDS011;3989;48.810;9.208;2023-04-25T08:14:54;3.57;;;3.33;;
7887;SDS011;3989;48.810;9.208;2023-04-25T08:17:20;5.37;;;3.63;;
7887;SDS011;3989;48.810;9.208;2023-04-25T08:19:47;3.37;;;3.17;;
7887;SDS011;3989;48.810;9.208;2023-04-25T08:22:13;4.20;;;3.90;;
7887;SDS011;3989;48.810;9.208;2023-04-25T08:24:40;5.40;;;3.30;;
7887;SDS011;3989;48.810;9.208;2023-04-25T08:27:07;4.80;;;3.77;;
7887;SDS011;3989;48.810;9.208;2023-04-25T08:29:34;4.93;;;4.00;;
7887;SDS011;3989;48.810;9.208;2023-04-25T08:32:02;3.57;;;3.37;;
7887;SDS011;3989;48.810;9.208;2023-04-25T08:34:28;3.70;;;3.50;;
7887;SDS011;3989;48.810;9.208;2023-04-25T08:36:55;5.07;;;3.70;;
7887;SDS011;3989;48.810;9.208;2023-04-25T08:39:21;7.27;;;4.10;;
7887;SDS011;3989;48.810;9.208;2023-04-25T08:41:48;3.90;;;3.60;;
7887;SDS011;3989;48.810;9.208;2023-04-25T08:44:14;5.80;;;4.10;;
7887;SDS011;3989;48.810;9.208;2023-04-25T08:46:42;4.80;;;3.20;;
7887;SDS011;3989;48.810;9.208;2023-04-25T08:49:15;3.70;;;3.37;;
7887;SDS011;3989;48.810;9.208;2023-04-25T08:51:44;4.07;;;3.77;;
7887;SDS011;3989;48.810;9.208;2023-04-25T08:54:12;4.30;;;3.90;;
7887;SDS011;3989;48.810;9.208;2023-04-25T08:56:40;4.40;;;4.00;;
7887;SDS011;3989;48.810;9.208;2023-04-25T08:59:09;4.43;;;4.17;;
7887;SDS011;3989;48.810;9.208;2023-04-25T09:01:36;3.80;;;3.57;;
7887;SDS011;3989;48.810;9.208;2023-04-25T12:51:01;5.07;;;4.67;;
7887;SDS011;3989;48.810;9.208;2023-04-25T12:53:40;5.47;;;5.07;;
7887;SDS011;3989;48.810;9.208;2023-04-25T12:56:07;4.67;;;4.37;;
7887;SDS011;3989;48.810;9.208;2023-04-25T12:58:34;4.53;;;4.20;;
7887;SDS011;3989;48.810;9.208;2023-04-25T13:01:01;4.27;;;3.97;;
7887;SDS011;3989;48.810;9.208;2023-04-25T13:03:29;4.53;;;4.23;;
7887;SDS011;3989;48.810;9.208;2023-04-25T13:05:56;4.10;;;3.73;;
7887;SDS011;3989;48.810;9.208;2023-04-25T13:08:23;5.10;;;4.60;;
7887;SDS011;3989;48.810;9.208;2023-04-25T13:10:50;4.63;;;4.23;;
7887;SDS011;3989;48.810;9.208;2023-04-25T13:13:16;4.47;;;4.17;;
7887;SDS011;3989;48.810;9.208;2023-04-25T13:15:43;6.83;;;4.30;;
7887;SDS011;3989;48.810;9.208;2023-04-25T13:18:12;4.50;;;4.10;;
7887;SDS011;3989;48.810;9.208;2023-04-25T13:20:40;5.57;;;5.07;;
7887;SDS011;3989;48.810;9.208;2023-04-25T13:23:07;4.60;;;4.20;;
7887;SDS011;3989;48.810;9.208;2023-04-25T13:25:34;5.23;;;4.73;;
7887;SDS011;3989;48.810;9.208;2023-04-25T13:28:01;5.13;;;4.73;;
7887;SDS011;3989;48.810;9.208;2023-04-25T13:30:28;4.53;;;4.27;;
7887;SDS011;3989;48.810;9.208;2023-04-25T13:32:55;4.37;;;4.07;;
7887;SDS011;3989;48.810;9.208;2023-04-25T13:35:25;5.40;;;4.47;;
7887;SDS011;3989;48.810;9.208;2023-04-25T13:37:54;4.77;;;4.47;;
7887;SDS011;3989;48.810;9.208;2023-04-25T13:40:21;6.40;;;4.70;;
7887;SDS011;3989;48.810;9.208;2023-04-25T13:42:48;5.53;;;5.03;;
7887;SDS011;3989;48.810;9.208;2023-04-25T13:45:16;5.40;;;5.00;;
7887;SDS011;3989;48.810;9.208;2023-04-25T13:47:46;6.90;;;6.23;;
7887;SDS011;3989;48.810;9.208;2023-04-25T13:50:26;7.33;;;6.70;;
7887;SDS011;3989;48.810;9.208;2023-04-25T13:52:55;8.30;;;7.30;;
7887;SDS011;3989;48.810;9.208;2023-04-25T13:55:22;7.73;;;6.70;;
7887;SDS011;3989;48.810;9.208;2023-04-25T13:57:48;8.00;;;6.97;;
7887;SDS011;3989;48.810;9.208;2023-04-25T14:00:15;7.13;;;6.50;;
7887;SDS011;3989;48.810;9.208;2023-04-25T14:02:43;7.53;;;6.73;;
7887;SDS011;3989;48.810;9.208;2023-04-25T14:05:10;6.83;;;6.20;;
7887;SDS011;3989;48.810;9.208;2023-04-25T14:07:36;7.50;;;6.73;;
7887;SDS011;3989;48.810;9.208;2023-04-25T14:10:05;6.63;;;6.03;;
7887;SDS011;3989;48.810;9.208;2023-04-25T14:12:32;9.60;;;6.57;;
7887;SDS011;3989;48.810;9.208;2023-04-25T14:14:59;6.97;;;6.27;;
7887;SDS011;3989;48.810;9.208;2023-04-25T14:17:26;6.53;;;6.00;;
7887;SDS011;3989;48.810;9.208;2023-04-25T14:19:52;6.20;;;5.70;;
7887;SDS011;3989;48.810;9.208;2023-04-25T14:22:19;6.70;;;5.30;;
7887;SDS011;3989;48.810;9.208;2023-04-25T14:24:46;6.63;;;5.03;;
7887;SDS011;3989;48.810;9.208;2023-04-25T14:27:14;7.03;;;5.17;;
7887;SDS011;3989;48.810;9.208;2023-04-25T14:29:41;5.50;;;5.03;;
7887;SDS011;3989;48.810;9.208;2023-04-25T14:32:07;5.57;;;5.00;;
7887;SDS011;3989;48.810;9.208;2023-04-25T14:34:35;5.53;;;5.07;;
7887;SDS011;3989;48.810;9.208;2023-04-25T14:37:02;5.00;;;4.60;;
7887;SDS011;3989;48.810;9.208;2023-04-25T14:39:28;5.43;;;5.03;;
7887;SDS011;3989;48.810;9.208;2023-04-25T14:41:55;5.90;;;5.30;;
7887;SDS011;3989;48.810;9.208;2023-04-25T14:44:24;5.00;;;4.50;;
7887;SDS011;3989;48.810;9.208;2023-04-25T14:46:51;4.40;;;4.10;;
7887;SDS011;3989;48.810;9.208;2023-04-25T14:49:18;4.63;;;4.27;;
7887;SDS011;3989;48.810;9.208;2023-04-25T14:51:45;4.77;;;4.40;;
7887;SDS011;3989;48.810;9.208;2023-04-25T14:54:12;4.60;;;4.20;;
7887;SDS011;3989;48.810;9.208;2023-04-25T14:56:38;5.00;;;4.60;;
7887;SDS011;3989;48.810;9.208;2023-04-25T14:59:05;4.73;;;4.13;;
7887;SDS011;3989;48.810;9.208;2023-04-25T15:01:34;5.00;;;4.60;;
7887;SDS011;3989;48.810;9.208;2023-04-25T15:04:01;5.90;;;5.40;;
7887;SDS011;3989;48.810;9.208;2023-04-25T15:06:28;5.00;;;4.40;;
7887;SDS011;3989;48.810;9.208;2023-04-25T15:08:55;4.97;;;4.47;;
7887;SDS011;3989;48.810;9.208;2023-04-25T15:11:22;5.60;;;5.10;;
7887;SDS011;3989;48.810;9.208;2023-04-25T15:13:49;5.27;;;4.33;;
7887;SDS011;3989;48.810;9.208;2023-04-25T15:16:15;6.40;;;4.80;;
7887;SDS011;3989;48.810;9.208;2023-04-25T15:18:44;7.67;;;4.90;;
7887;SDS011;3989;48.810;9.208;2023-04-25T15:21:10;4.37;;;4.00;;
7887;SDS011;3989;48.810;9.208;2023-04-25T15:23:37;4.23;;;3.93;;
7887;SDS011;3989;48.810;9.208;2023-04-25T15:26:04;4.10;;;3.70;;
7887;SDS011;3989;48.810;9.208;2023-04-25T15:28:31;4.10;;;3.80;;
7887;SDS011;3989;48.810;9.208;2023-04-25T15:30:58;4.60;;;3.60;;
7887;SDS011;3989;48.810;9.208;2023-04-25T15:33:25;3.80;;;3.50;;
7887;SDS011;3989;48.810;9.208;2023-04-25T15:35:53;5.67;;;3.90;;
7887;SDS011;3989;48.810;9.208;2023-04-25T15:38:20;4.00;;;3.80;;
7887;SDS011;3989;48.810;9.208;2023-04-25T15:40:46;4.40;;;3.93;;
7887;SDS011;3989;48.810;9.208;2023-04-25T15:43:13;4.73;;;3.30;;
7887;SDS011;3989;48.810;9.208;2023-04-25T15:45:41;4.70;;;4.20;;
7887;SDS011;3989;48.810;9.208;2023-04-25T15:48:09;4.00;;;3.60;;
7887;SDS011;3989;48.810;9.208;2023-04-25T15:50:36;4.07;;;3.80;;
7887;SDS011;3989;48.810;9.208;2023-04-25T15:53:04;5.67;;;3.70;;
7887;SDS011;3989;48.810;9.208;2023-04-25T15:55:31;4.50;;;4.10;;
7887;SDS011;3989;48.810;9.208;2023-04-25T15:57:57;5.37;;;4.50;;
7887;SDS011;3989;48.810;9.208;2023-04-25T16:00:24;4.23;;;3.93;;
7887;SDS011;3989;48.810;9.208;2023-04-25T16:02:52;7.33;;;4.30;;
7887;SDS011;3989;48.810;9.208;2023-04-25T16:05:18;4.63;;;4.07;;
7887;SDS011;3989;48.810;9.208;2023-04-25T16:07:45;4.57;;;4.27;;
7887;SDS011;3989;48.810;9.208;2023-04-25T16:10:13;4.70;;;4.20;;
7887;SDS011;3989;48.810;9.208;2023-04-25T16:12:43;5.03;;;4.30;;
7887;SDS011;3989;48.810;9.208;2023-04-25T16:15:12;5.97;;;4.60;;
7887;SDS011;3989;48.810;9.208;2023-04-25T16:17:38;4.73;;;4.40;;
7887;SDS011;3989;48.810;9.208;2023-04-25T16:20:05;5.20;;;4.70;;
7887;SDS011;3989;48.810;9.208;2023-04-25T16:22:34;5.70;;;5.20;;
7887;SDS011;3989;48.810;9.208;2023-04-25T16:25:01;4.57;;;4.27;;
7887;SDS011;3989;48.810;9.208;2023-04-25T16:27:30;4.33;;;4.07;;
7887;SDS011;3989;48.810;9.208;2023-04-25T16:29:58;4.43;;;4.13;;
7887;SDS011;3989;48.810;9.208;2023-04-25T16:32:25;4.03;;;3.63;;
7887;SDS011;3989;48.810;9.208;2023-04-25T16:34:51;4.53;;;4.13;;
7887;SDS011;3989;48.810;9.208;2023-04-25T16:37:18;5.40;;;4.87;;
7887;SDS011;3989;48.810;9.208;2023-04-25T16:39:45;3.87;;;3.57;;
7887;SDS011;3989;48.810;9.208;2023-04-25T16:42:12;5.03;;;4.53;;
7887;SDS011;3989;48.810;9.208;2023-04-25T16:44:40;5.83;;;4.70;;
7887;SDS011;3989;48.810;9.208;2023-04-25T16:47:06;4.90;;;4.50;;
7887;SDS011;3989;48.810;9.208;2023-04-25T16:49:33;7.33;;;5.00;;
7887;SDS011;3989;48.810;9.208;2023-04-25T16:52:00;5.57;;;5.03;;
7887;SDS011;3989;48.810;9.208;2023-04-25T16:54:26;5.00;;;4.60;;
7887;SDS011;3989;48.810;9.208;2023-04-25T16:56:53;6.30;;;4.90;;
7887;SDS011;3989;48.810;9.208;2023-04-25T16:59:20;5.93;;;4.70;;
7887;SDS011;3989;48.810;9.208;2023-04-25T17:01:48;6.03;;;5.03;;
7887;SDS011;3989;48.810;9.208;2023-04-25T17:04:14;6.70;;;4.70;;
7887;SDS011;3989;48.810;9.208;2023-04-25T17:06:41;4.90;;;4.40;;
7887;SDS011;3989;48.810;9.208;2023-04-25T17:09:07;4.80;;;4.30;;
7887;SDS011;3989;48.810;9.208;2023-04-25T17:11:34;5.30;;;4.80;;
7887;SDS011;3989;48.810;9.208;2023-04-25T17:14:09;5.17;;;4.80;;
7887;SDS011;3989;48.810;9.208;2023-04-25T17:16:36;4.60;;;4.20;;
7887;SDS011;3989;48.810;9.208;2023-04-25T17:19:05;4.80;;;4.40;;
7887;SDS011;3989;48.810;9.208;2023-04-25T17:21:32;4.43;;;4.00;;
7887;SDS011;3989;48.810;9.208;2023-04-25T17:23:59;5.33;;;4.57;;
7887;SDS011;3989;48.810;9.208;2023-04-25T17:26:29;5.60;;;4.70;;
7887;SDS011;3989;48.810;9.208;2023-04-25T17:28:57;7.37;;;4.90;;
7887;SDS011;3989;48.810;9.208;2023-04-25T17:31:24;5.50;;;5.00;;
7887;SDS011;3989;48.810;9.208;2023-04-25T17:34:24;6.47;;;5.30;;
7887;SDS011;3989;48.810;9.208;2023-04-25T17:36:53;6.03;;;4.70;;
7887;SDS011;3989;48.810;9.208;2023-04-25T17:39:27;5.50;;;5.00;;
7887;SDS011;3989;48.810;9.208;2023-04-25T17:45:10;6.40;;;4.90;;
7887;SDS011;3989;48.810;9.208;2023-04-25T17:47:52;4.30;;;3.97;;
7887;SDS011;3989;48.810;9.208;2023-04-25T17:53:56;5.13;;;3.23;;
7887;SDS011;3989;48.810;9.208;2023-04-25T17:56:37;3.70;;;3.37;;
7887;SDS011;3989;48.810;9.208;2023-04-25T17:59:27;3.50;;;3.30;;
7887;SDS011;3989;48.810;9.208;2023-04-25T18:01:56;3.50;;;3.20;;
7887;SDS011;3989;48.810;9.208;2023-04-25T18:04:43;3.07;;;2.87;;
7887;SDS011;3989;48.810;9.208;2023-04-25T18:23:42;5.27;;;4.67;;
7887;SDS011;3989;48.810;9.208;2023-04-25T18:26:15;5.80;;;4.40;;
7887;SDS011;3989;48.810;9.208;2023-04-25T18:28:56;6.03;;;4.70;;
